Main page
METAR-TAF:

METAR-TAF

Airports :

Frankfurt–Hahn Airport

Hahn, Germany

latitude: 49-57N, longitude: 007-16E, elevation: 491 m

Current weather observation

The report was made 39 minutes ago, at 08:20 UTC
Wind 6 kt from the East, varying between Northeast and East/Southeast
Temperature -3°C
Humidity 80%
Pressure 1018 hPa
Visibility 10 km or more
Broken clouds at a height of 2000 ft

METAR: EDFH 140820Z 08006KT 040V120 9999 BKN020 M03/M06 Q1018

Time: 09:59 (08:59 UTC)

Forecast

The report was made 3 hours and 59 minutes ago, at 05:00 UTC
Forecast valid from 14 at 06 UTC to 15 at 06 UTC
Wind 8 kt from the East/Northeast
Visibility 10 km or more
Broken clouds at a height of 2000 ft
Becoming
from 15 at 00 UTC to 15 at 03 UTC
Wind 9 kt from the Southeast

TAF: EDFH 140500Z 1406/1506 07008KT 9999 BKN020 BECMG 1500/1503 13009KT

Weather observations and forecasts of more than 4000 airports (METAR and TAF reports).

The available stations are represented by yellow and red dots on the map.

Hover mouse over dot to see the name of the station.

Then click to see weather observations and forecasts.

To change the map : click on the green buttons with a black cross to zoom in, on the green button with a dash to zoom out, or on the green arrows for adjacent maps.


METAR-TAF: